DAL2120 KLAX-KLAS
Flight info
| Callsign | DAL2120 |
|---|---|
| Flight time | 0h 48m |
| Altitude | 29000 |
| Route | ORCKA5 MISEN RNDRZ4 |
| Aircraft | A20N/M-SDE2E3FGHIRWXY/LB1 |
Departure
| Time | 2026-05-08 00:43 |
|---|---|
| Airport | Los Angeles International Airport (KLAX) |
Arrival
| Time | 2026-05-08 01:31 |
|---|---|
| Airport | Harry Reid International Airport (KLAS) |
| Time | Latitude | Longitude | Altitude | Speed | Heading |
|---|---|---|---|---|---|
| 2026-05-08 00:19 | 33.94624 | -118.40483 | 123 ft | 0 kts | 92° |
| 2026-05-08 00:29 | 33.94624 | -118.40496 | 122 ft | 0 kts | 92° |
| 2026-05-08 00:29 | 33.94625 | -118.40509 | 122 ft | 2 kts | 75° |
| 2026-05-08 00:29 | 33.94617 | -118.40525 | 121 ft | 2 kts | 48° |
| 2026-05-08 00:29 | 33.94605 | -118.40536 | 121 ft | 2 kts | 20° |
| 2026-05-08 00:30 | 33.94592 | -118.40539 | 121 ft | 0 kts | 356° |
| 2026-05-08 00:30 | 33.94591 | -118.40539 | 122 ft | 1 kts | 356° |
| 2026-05-08 00:30 | 33.94621 | -118.40543 | 123 ft | 3 kts | 353° |
| 2026-05-08 00:30 | 33.94631 | -118.40544 | 123 ft | 0 kts | 353° |
| 2026-05-08 00:33 | 33.94638 | -118.40545 | 123 ft | 3 kts | 353° |
| 2026-05-08 00:33 | 33.94669 | -118.40550 | 123 ft | 5 kts | 353° |
| 2026-05-08 00:33 | 33.94702 | -118.40555 | 123 ft | 0 kts | 352° |
| 2026-05-08 00:34 | 33.94712 | -118.40557 | 123 ft | 2 kts | 347° |
| 2026-05-08 00:34 | 33.94738 | -118.40570 | 123 ft | 8 kts | 335° |
| 2026-05-08 00:34 | 33.94811 | -118.40602 | 123 ft | 11 kts | 349° |
| 2026-05-08 00:34 | 33.94870 | -118.40558 | 123 ft | 12 kts | 82° |
| 2026-05-08 00:35 | 33.94882 | -118.40449 | 122 ft | 13 kts | 83° |
| 2026-05-08 00:35 | 33.94894 | -118.40329 | 121 ft | 15 kts | 84° |
| 2026-05-08 00:35 | 33.94907 | -118.40196 | 120 ft | 16 kts | 82° |
| 2026-05-08 00:35 | 33.94918 | -118.40084 | 119 ft | 6 kts | 83° |
| 2026-05-08 00:36 | 33.94919 | -118.40074 | 119 ft | 0 kts | 83° |
| 2026-05-08 00:36 | 33.94919 | -118.40072 | 119 ft | 1 kts | 83° |
| 2026-05-08 00:36 | 33.94924 | -118.40021 | 119 ft | 8 kts | 83° |
| 2026-05-08 00:37 | 33.94942 | -118.39946 | 118 ft | 10 kts | 52° |
| 2026-05-08 00:37 | 33.95017 | -118.39926 | 118 ft | 12 kts | 344° |
| 2026-05-08 00:37 | 33.95037 | -118.40013 | 119 ft | 7 kts | 263° |
| 2026-05-08 00:38 | 33.95036 | -118.40018 | 119 ft | 0 kts | 263° |
| 2026-05-08 00:42 | 33.95025 | -118.40115 | 120 ft | 39 kts | 263° |
| 2026-05-08 00:42 | 33.94956 | -118.40784 | 124 ft | 117 kts | 263° |
| 2026-05-08 00:43 | 33.94828 | -118.42008 | 209 ft | 169 kts | 262° |
| 2026-05-08 00:43 | 33.94670 | -118.43407 | 912 ft | 171 kts | 262° |
| 2026-05-08 00:43 | 33.94513 | -118.44810 | 1699 ft | 171 kts | 262° |
| 2026-05-08 00:43 | 33.94370 | -118.46246 | 2368 ft | 178 kts | 264° |
| 2026-05-08 00:44 | 33.94207 | -118.47752 | 2922 ft | 191 kts | 264° |
| 2026-05-08 00:44 | 33.93993 | -118.49397 | 3461 ft | 207 kts | 263° |
| 2026-05-08 00:44 | 33.93743 | -118.51191 | 3867 ft | 230 kts | 263° |
| 2026-05-08 00:44 | 33.93469 | -118.53150 | 4417 ft | 249 kts | 263° |
| 2026-05-08 00:45 | 33.93173 | -118.55273 | 5073 ft | 263 kts | 263° |
| 2026-05-08 00:45 | 33.92877 | -118.57416 | 5972 ft | 265 kts | 263° |
| 2026-05-08 00:45 | 33.92554 | -118.59598 | 6866 ft | 269 kts | 257° |
| 2026-05-08 00:45 | 33.91677 | -118.61607 | 7633 ft | 280 kts | 228° |
| 2026-05-08 00:46 | 33.90035 | -118.62856 | 8373 ft | 290 kts | 201° |
| 2026-05-08 00:46 | 33.88039 | -118.63187 | 9059 ft | 298 kts | 173° |
| 2026-05-08 00:46 | 33.86108 | -118.62286 | 9792 ft | 301 kts | 140° |
| 2026-05-08 00:46 | 33.84832 | -118.60371 | 10519 ft | 301 kts | 110° |
| 2026-05-08 00:47 | 33.84500 | -118.57880 | 10969 ft | 313 kts | 81° |
| 2026-05-08 00:47 | 33.85304 | -118.55434 | 11596 ft | 324 kts | 53° |
| 2026-05-08 00:47 | 33.86729 | -118.53316 | 12364 ft | 327 kts | 50° |
| 2026-05-08 00:47 | 33.88168 | -118.51210 | 13105 ft | 331 kts | 51° |
| 2026-05-08 00:48 | 33.89609 | -118.49026 | 13824 ft | 334 kts | 52° |
| 2026-05-08 00:48 | 33.91049 | -118.46821 | 14528 ft | 338 kts | 52° |
| 2026-05-08 00:48 | 33.92497 | -118.44582 | 15219 ft | 342 kts | 52° |
| 2026-05-08 00:48 | 33.93894 | -118.42244 | 15913 ft | 345 kts | 55° |
| 2026-05-08 00:49 | 33.95241 | -118.39884 | 16531 ft | 349 kts | 55° |
| 2026-05-08 00:49 | 33.96611 | -118.37462 | 17173 ft | 353 kts | 55° |
| 2026-05-08 00:49 | 33.98016 | -118.34978 | 17828 ft | 356 kts | 55° |
| 2026-05-08 00:49 | 33.99398 | -118.32529 | 18443 ft | 360 kts | 55° |
| 2026-05-08 00:50 | 34.00817 | -118.30020 | 19062 ft | 363 kts | 55° |
| 2026-05-08 00:50 | 34.02254 | -118.27481 | 19665 ft | 366 kts | 55° |
| 2026-05-08 00:50 | 34.03680 | -118.24965 | 20256 ft | 369 kts | 55° |
| 2026-05-08 00:50 | 34.05145 | -118.22382 | 20867 ft | 371 kts | 54° |
| 2026-05-08 00:51 | 34.06612 | -118.19795 | 21476 ft | 373 kts | 54° |
| 2026-05-08 00:51 | 34.08079 | -118.17209 | 22054 ft | 376 kts | 55° |
| 2026-05-08 00:51 | 34.09560 | -118.14592 | 22587 ft | 380 kts | 55° |
| 2026-05-08 00:51 | 34.11076 | -118.11907 | 23156 ft | 383 kts | 55° |
| 2026-05-08 00:52 | 34.12578 | -118.09244 | 23750 ft | 386 kts | 55° |
| 2026-05-08 00:52 | 34.14108 | -118.06535 | 24302 ft | 388 kts | 54° |
| 2026-05-08 00:52 | 34.15627 | -118.03843 | 24789 ft | 392 kts | 54° |
| 2026-05-08 00:52 | 34.17169 | -118.01109 | 25325 ft | 395 kts | 54° |
| 2026-05-08 00:53 | 34.18705 | -117.98381 | 25853 ft | 397 kts | 54° |
| 2026-05-08 00:53 | 34.20264 | -117.95609 | 26361 ft | 400 kts | 54° |
| 2026-05-08 00:53 | 34.21802 | -117.92870 | 26980 ft | 398 kts | 54° |
| 2026-05-08 00:53 | 34.23343 | -117.90125 | 27644 ft | 396 kts | 54° |
| 2026-05-08 00:54 | 34.24903 | -117.87346 | 28188 ft | 396 kts | 54° |
| 2026-05-08 00:54 | 34.26448 | -117.84590 | 28633 ft | 399 kts | 54° |
| 2026-05-08 00:54 | 34.27992 | -117.81834 | 29000 ft | 401 kts | 54° |
| 2026-05-08 00:55 | 34.31131 | -117.76222 | 29064 ft | 403 kts | 54° |
| 2026-05-08 00:55 | 34.34268 | -117.70602 | 29066 ft | 403 kts | 54° |
| 2026-05-08 00:56 | 34.37472 | -117.65093 | 29076 ft | 402 kts | 52° |
| 2026-05-08 00:56 | 34.40771 | -117.59619 | 29097 ft | 402 kts | 52° |
| 2026-05-08 00:57 | 34.44057 | -117.54134 | 29101 ft | 403 kts | 52° |
| 2026-05-08 00:57 | 34.47327 | -117.48653 | 29098 ft | 402 kts | 52° |
| 2026-05-08 00:58 | 34.50601 | -117.43150 | 29095 ft | 402 kts | 52° |
| 2026-05-08 00:58 | 34.53852 | -117.37676 | 29113 ft | 402 kts | 52° |
| 2026-05-08 00:59 | 34.57137 | -117.32132 | 29106 ft | 402 kts | 53° |
| 2026-05-08 00:59 | 34.60376 | -117.26657 | 29086 ft | 402 kts | 53° |
| 2026-05-08 01:00 | 34.63653 | -117.21110 | 29072 ft | 402 kts | 53° |
| 2026-05-08 01:00 | 34.66896 | -117.15614 | 29065 ft | 402 kts | 53° |
| 2026-05-08 01:01 | 34.70151 | -117.10088 | 29058 ft | 402 kts | 53° |
| 2026-05-08 01:01 | 34.73390 | -117.04581 | 29054 ft | 401 kts | 53° |
| 2026-05-08 01:02 | 34.76609 | -116.99098 | 29051 ft | 401 kts | 53° |
| 2026-05-08 01:02 | 34.79843 | -116.93582 | 29053 ft | 401 kts | 53° |
| 2026-05-08 01:03 | 34.83075 | -116.88063 | 29058 ft | 401 kts | 53° |
| 2026-05-08 01:03 | 34.86314 | -116.82519 | 29046 ft | 400 kts | 53° |
| 2026-05-08 01:04 | 34.89514 | -116.77031 | 29036 ft | 400 kts | 53° |
| 2026-05-08 01:04 | 34.92746 | -116.71471 | 29016 ft | 401 kts | 53° |
| 2026-05-08 01:05 | 34.95890 | -116.65916 | 29001 ft | 401 kts | 53° |
| 2026-05-08 01:05 | 34.99040 | -116.60323 | 28982 ft | 400 kts | 53° |
| 2026-05-08 01:06 | 35.02181 | -116.54746 | 28971 ft | 401 kts | 53° |
| 2026-05-08 01:06 | 35.05318 | -116.49167 | 28962 ft | 400 kts | 53° |
| 2026-05-08 01:07 | 35.08477 | -116.43548 | 28952 ft | 400 kts | 53° |
| 2026-05-08 01:07 | 35.11872 | -116.38223 | 28603 ft | 401 kts | 47° |
| 2026-05-08 01:07 | 35.13759 | -116.35656 | 27804 ft | 405 kts | 46° |
| 2026-05-08 01:08 | 35.15658 | -116.33106 | 27085 ft | 405 kts | 46° |
| 2026-05-08 01:08 | 35.17546 | -116.30573 | 26392 ft | 406 kts | 46° |
| 2026-05-08 01:08 | 35.19427 | -116.28045 | 25739 ft | 405 kts | 46° |
| 2026-05-08 01:08 | 35.21312 | -116.25508 | 25268 ft | 399 kts | 46° |
| 2026-05-08 01:09 | 35.23169 | -116.23006 | 24802 ft | 394 kts | 46° |
| 2026-05-08 01:09 | 35.24988 | -116.20552 | 24323 ft | 389 kts | 46° |
| 2026-05-08 01:09 | 35.26786 | -116.18124 | 23835 ft | 385 kts | 46° |
| 2026-05-08 01:09 | 35.28578 | -116.15701 | 23362 ft | 380 kts | 46° |
| 2026-05-08 01:10 | 35.30329 | -116.13332 | 22895 ft | 376 kts | 46° |
| 2026-05-08 01:10 | 35.32078 | -116.10963 | 22436 ft | 373 kts | 46° |
| 2026-05-08 01:10 | 35.33803 | -116.08626 | 21975 ft | 370 kts | 46° |
| 2026-05-08 01:10 | 35.35512 | -116.06306 | 21512 ft | 367 kts | 46° |
| 2026-05-08 01:11 | 35.37231 | -116.03972 | 21049 ft | 364 kts | 46° |
| 2026-05-08 01:11 | 35.38903 | -116.01701 | 20597 ft | 361 kts | 46° |
| 2026-05-08 01:11 | 35.40588 | -115.99412 | 20152 ft | 358 kts | 46° |
| 2026-05-08 01:11 | 35.42233 | -115.97176 | 19712 ft | 356 kts | 46° |
| 2026-05-08 01:12 | 35.43891 | -115.94919 | 19267 ft | 353 kts | 46° |
| 2026-05-08 01:12 | 35.45511 | -115.92713 | 18830 ft | 350 kts | 46° |
| 2026-05-08 01:12 | 35.47116 | -115.90527 | 18391 ft | 346 kts | 46° |
| 2026-05-08 01:12 | 35.48721 | -115.88340 | 17947 ft | 345 kts | 46° |
| 2026-05-08 01:13 | 35.50332 | -115.86145 | 17500 ft | 343 kts | 46° |
| 2026-05-08 01:13 | 35.51911 | -115.83991 | 17052 ft | 341 kts | 46° |
| 2026-05-08 01:13 | 35.53500 | -115.81821 | 16604 ft | 339 kts | 46° |
| 2026-05-08 01:13 | 35.55040 | -115.79714 | 16404 ft | 328 kts | 46° |
| 2026-05-08 01:14 | 35.56524 | -115.77682 | 16271 ft | 316 kts | 46° |
| 2026-05-08 01:14 | 35.57971 | -115.75698 | 16133 ft | 304 kts | 45° |
| 2026-05-08 01:14 | 35.59349 | -115.73814 | 16019 ft | 295 kts | 45° |
| 2026-05-08 01:14 | 35.60750 | -115.71924 | 16032 ft | 302 kts | 45° |
| 2026-05-08 01:15 | 35.62183 | -115.69999 | 16042 ft | 304 kts | 45° |
| 2026-05-08 01:15 | 35.63608 | -115.68076 | 16048 ft | 304 kts | 45° |
| 2026-05-08 01:15 | 35.65025 | -115.66164 | 16054 ft | 305 kts | 45° |
| 2026-05-08 01:15 | 35.66462 | -115.64223 | 16059 ft | 304 kts | 45° |
| 2026-05-08 01:16 | 35.67876 | -115.62310 | 16063 ft | 305 kts | 45° |
| 2026-05-08 01:16 | 35.69297 | -115.60382 | 16070 ft | 305 kts | 45° |
| 2026-05-08 01:16 | 35.70714 | -115.58459 | 16075 ft | 305 kts | 45° |
| 2026-05-08 01:16 | 35.72171 | -115.56579 | 16078 ft | 304 kts | 40° |
| 2026-05-08 01:17 | 35.73842 | -115.54938 | 16084 ft | 303 kts | 32° |
| 2026-05-08 01:17 | 35.75619 | -115.53599 | 16088 ft | 301 kts | 28° |
| 2026-05-08 01:17 | 35.77459 | -115.52312 | 16089 ft | 301 kts | 27° |
| 2026-05-08 01:17 | 35.79275 | -115.51053 | 16093 ft | 301 kts | 27° |
| 2026-05-08 01:18 | 35.81098 | -115.49785 | 16060 ft | 302 kts | 28° |
| 2026-05-08 01:18 | 35.82923 | -115.48511 | 15655 ft | 303 kts | 28° |
| 2026-05-08 01:18 | 35.84769 | -115.47216 | 15229 ft | 301 kts | 27° |
| 2026-05-08 01:18 | 35.86572 | -115.45950 | 14850 ft | 298 kts | 27° |
| 2026-05-08 01:19 | 35.88353 | -115.44698 | 14469 ft | 295 kts | 27° |
| 2026-05-08 01:19 | 35.90123 | -115.43455 | 14092 ft | 292 kts | 27° |
| 2026-05-08 01:19 | 35.91872 | -115.42227 | 13701 ft | 289 kts | 27° |
| 2026-05-08 01:19 | 35.93629 | -115.41003 | 13345 ft | 286 kts | 27° |
| 2026-05-08 01:20 | 35.95345 | -115.39805 | 12995 ft | 284 kts | 27° |
| 2026-05-08 01:20 | 35.97065 | -115.38604 | 12638 ft | 282 kts | 27° |
| 2026-05-08 01:20 | 35.98771 | -115.37415 | 12283 ft | 281 kts | 27° |
| 2026-05-08 01:20 | 36.00354 | -115.36062 | 11899 ft | 284 kts | 44° |
| 2026-05-08 01:21 | 36.01356 | -115.33939 | 11518 ft | 289 kts | 72° |
| 2026-05-08 01:21 | 36.01522 | -115.31472 | 11159 ft | 291 kts | 92° |
| 2026-05-08 01:21 | 36.01364 | -115.28969 | 10785 ft | 292 kts | 93° |
| 2026-05-08 01:21 | 36.01212 | -115.26485 | 10423 ft | 292 kts | 92° |
| 2026-05-08 01:22 | 36.01071 | -115.23985 | 10072 ft | 291 kts | 92° |
| 2026-05-08 01:22 | 36.00938 | -115.21497 | 9734 ft | 291 kts | 92° |
| 2026-05-08 01:22 | 36.00811 | -115.18989 | 9490 ft | 286 kts | 92° |
| 2026-05-08 01:22 | 36.00691 | -115.16612 | 9371 ft | 275 kts | 92° |
| 2026-05-08 01:23 | 36.00574 | -115.14316 | 9294 ft | 263 kts | 92° |
| 2026-05-08 01:23 | 36.00462 | -115.12102 | 9221 ft | 256 kts | 93° |
| 2026-05-08 01:23 | 36.00353 | -115.09905 | 9086 ft | 256 kts | 93° |
| 2026-05-08 01:23 | 36.00242 | -115.07715 | 8790 ft | 256 kts | 93° |
| 2026-05-08 01:24 | 36.00130 | -115.05531 | 8503 ft | 254 kts | 93° |
| 2026-05-08 01:24 | 36.00018 | -115.03356 | 8217 ft | 253 kts | 93° |
| 2026-05-08 01:24 | 35.99909 | -115.01195 | 7940 ft | 251 kts | 92° |
| 2026-05-08 01:24 | 35.99886 | -114.99058 | 7711 ft | 246 kts | 90° |
| 2026-05-08 01:25 | 35.99886 | -114.96964 | 7470 ft | 242 kts | 89° |
| 2026-05-08 01:25 | 35.99895 | -114.94918 | 7230 ft | 238 kts | 89° |
| 2026-05-08 01:25 | 35.99939 | -114.92895 | 6989 ft | 234 kts | 80° |
| 2026-05-08 01:25 | 36.00560 | -114.91110 | 6797 ft | 222 kts | 49° |
| 2026-05-08 01:26 | 36.01735 | -114.89965 | 6576 ft | 214 kts | 31° |
| 2026-05-08 01:26 | 36.03083 | -114.89179 | 6220 ft | 212 kts | 13° |
| 2026-05-08 01:26 | 36.04511 | -114.89306 | 5857 ft | 209 kts | 335° |
| 2026-05-08 01:26 | 36.05574 | -114.90456 | 5573 ft | 202 kts | 301° |
| 2026-05-08 01:27 | 36.06186 | -114.91972 | 5368 ft | 193 kts | 294° |
| 2026-05-08 01:27 | 36.06733 | -114.93452 | 5134 ft | 187 kts | 294° |
| 2026-05-08 01:27 | 36.07249 | -114.94873 | 4878 ft | 176 kts | 289° |
| 2026-05-08 01:27 | 36.07432 | -114.96312 | 4606 ft | 166 kts | 271° |
| 2026-05-08 01:28 | 36.07429 | -114.97726 | 4252 ft | 164 kts | 269° |
| 2026-05-08 01:28 | 36.07404 | -114.99122 | 3878 ft | 164 kts | 269° |
| 2026-05-08 01:28 | 36.07386 | -115.00531 | 3506 ft | 164 kts | 269° |
| 2026-05-08 01:28 | 36.07378 | -115.01919 | 3194 ft | 159 kts | 270° |
| 2026-05-08 01:29 | 36.07376 | -115.03256 | 3059 ft | 158 kts | 270° |
| 2026-05-08 01:29 | 36.07376 | -115.04620 | 3067 ft | 157 kts | 270° |
| 2026-05-08 01:29 | 36.07375 | -115.05966 | 3035 ft | 154 kts | 270° |
| 2026-05-08 01:29 | 36.07373 | -115.07301 | 2867 ft | 154 kts | 270° |
| 2026-05-08 01:30 | 36.07370 | -115.08613 | 2683 ft | 153 kts | 270° |
| 2026-05-08 01:30 | 36.07368 | -115.09920 | 2499 ft | 152 kts | 270° |
| 2026-05-08 01:30 | 36.07366 | -115.11227 | 2304 ft | 152 kts | 270° |
| 2026-05-08 01:30 | 36.07363 | -115.12534 | 2137 ft | 151 kts | 270° |
| 2026-05-08 01:31 | 36.07363 | -115.13775 | 2098 ft | 129 kts | 271° |
| 2026-05-08 01:31 | 36.07371 | -115.14672 | 2125 ft | 79 kts | 272° |
| 2026-05-08 01:31 | 36.07377 | -115.15195 | 2143 ft | 22 kts | 276° |
| 2026-05-08 01:31 | 36.07406 | -115.15363 | 2149 ft | 18 kts | 291° |
| 2026-05-08 01:32 | 36.07457 | -115.15493 | 2153 ft | 15 kts | 298° |
| 2026-05-08 01:32 | 36.07511 | -115.15595 | 2156 ft | 13 kts | 309° |
| 2026-05-08 01:32 | 36.07572 | -115.15674 | 2157 ft | 12 kts | 317° |
| 2026-05-08 01:32 | 36.07648 | -115.15761 | 2160 ft | 16 kts | 317° |
| 2026-05-08 01:33 | 36.07744 | -115.15825 | 2160 ft | 16 kts | 359° |
| 2026-05-08 01:33 | 36.07805 | -115.15722 | 2157 ft | 17 kts | 89° |
| 2026-05-08 01:33 | 36.07805 | -115.15553 | 2150 ft | 21 kts | 90° |
| 2026-05-08 01:33 | 36.07805 | -115.15357 | 2142 ft | 24 kts | 90° |
| 2026-05-08 01:34 | 36.07801 | -115.15142 | 2136 ft | 25 kts | 91° |
| 2026-05-08 01:34 | 36.07792 | -115.14917 | 2129 ft | 24 kts | 95° |
| 2026-05-08 01:34 | 36.07776 | -115.14703 | 2122 ft | 26 kts | 95° |
| 2026-05-08 01:34 | 36.07762 | -115.14480 | 2115 ft | 24 kts | 93° |
| 2026-05-08 01:35 | 36.07753 | -115.14287 | 2108 ft | 22 kts | 92° |
| 2026-05-08 01:35 | 36.07754 | -115.14097 | 2103 ft | 22 kts | 89° |
| 2026-05-08 01:35 | 36.07753 | -115.13899 | 2097 ft | 21 kts | 91° |
| 2026-05-08 01:35 | 36.07791 | -115.13796 | 2094 ft | 14 kts | 359° |
| 2026-05-08 01:36 | 36.07826 | -115.13884 | 2096 ft | 11 kts | 264° |
| 2026-05-08 01:36 | 36.07864 | -115.13950 | 2097 ft | 10 kts | 349° |
| 2026-05-08 01:36 | 36.07941 | -115.13957 | 2097 ft | 11 kts | 359° |
| 2026-05-08 01:36 | 36.07994 | -115.13959 | 2096 ft | 0 kts | 0° |